createdAt,value
2022-07-28T00:00:35.544Z,57.18
2022-07-28T00:01:38.297Z,57.26
2022-07-28T00:02:40.408Z,57.31
2022-07-28T00:03:42.424Z,57.23
2022-07-28T00:04:44.377Z,57.17
2022-07-28T00:05:46.329Z,57.15
2022-07-28T00:06:50.123Z,57.24
2022-07-28T00:07:51.974Z,57.26
2022-07-28T00:08:53.927Z,57.22
2022-07-28T00:10:00.387Z,57.23
2022-07-28T00:10:59.788Z,57.23
2022-07-28T00:12:01.730Z,57.30
2022-07-28T00:13:03.851Z,57.23
2022-07-28T00:14:07.483Z,57.29
2022-07-28T00:15:09.434Z,57.32
2022-07-28T00:16:11.858Z,57.42
2022-07-28T00:17:13.847Z,57.39
2022-07-28T00:18:15.688Z,57.36
2022-07-28T00:19:17.658Z,57.33
2022-07-28T00:20:20.221Z,57.29
2022-07-28T00:21:22.586Z,57.22
2022-07-28T00:22:24.534Z,56.95
2022-07-28T00:23:38.593Z,56.64
2022-07-28T00:24:30.182Z,56.33
2022-07-28T00:25:32.130Z,56.34
2022-07-28T00:26:34.287Z,56.74
2022-07-28T00:27:36.239Z,57.09
2022-07-28T00:28:38.190Z,57.21
2022-07-28T00:29:49.346Z,57.35
2022-07-28T00:30:43.937Z,57.52
2022-07-28T00:31:46.249Z,57.58
2022-07-28T00:32:48.257Z,57.61
2022-07-28T00:33:50.311Z,57.58
2022-07-28T00:34:53.558Z,57.59
2022-07-28T00:35:55.648Z,57.53
2022-07-28T00:36:58.017Z,57.44
2022-07-28T00:38:00.044Z,57.46
2022-07-28T00:39:02.230Z,57.52
2022-07-28T00:40:04.377Z,57.57
2022-07-28T00:41:06.331Z,57.51
2022-07-28T00:42:08.285Z,57.51
2022-07-28T00:43:10.243Z,57.56
2022-07-28T00:44:12.469Z,57.48
2022-07-28T00:45:14.758Z,57.39
2022-07-28T00:46:17.569Z,57.30
2022-07-28T00:47:19.691Z,57.23
2022-07-28T00:48:21.647Z,57.15
2022-07-28T00:49:23.624Z,57.18
2022-07-28T00:50:26.062Z,57.20
2022-07-28T00:51:28.010Z,57.27
2022-07-28T00:52:29.960Z,57.33
2022-07-28T00:53:31.910Z,57.37
2022-07-28T00:54:33.861Z,57.33
2022-07-28T00:56:03.035Z,57.33
2022-07-28T00:56:39.612Z,57.34
2022-07-28T00:57:41.569Z,57.37
2022-07-28T00:58:43.515Z,57.40
2022-07-28T00:59:45.469Z,57.43
2022-07-28T01:00:47.524Z,57.49
2022-07-28T01:01:50.079Z,57.62
2022-07-28T01:02:53.954Z,57.63
2022-07-28T01:03:56.202Z,57.69
2022-07-28T01:04:58.104Z,57.72
2022-07-28T01:06:00.057Z,57.72
2022-07-28T01:07:02.011Z,57.83
2022-07-28T01:08:03.956Z,57.97
2022-07-28T01:09:05.905Z,57.91
2022-07-28T01:10:09.302Z,57.87
2022-07-28T01:11:11.251Z,57.96
2022-07-28T01:12:13.198Z,57.75
2022-07-28T01:13:15.151Z,57.18
2022-07-28T01:14:17.736Z,56.72
2022-07-28T01:15:20.286Z,56.40
2022-07-28T01:16:23.712Z,56.22
2022-07-28T01:17:26.238Z,56.04
2022-07-28T01:18:28.193Z,55.99
2022-07-28T01:19:30.144Z,56.24
2022-07-28T01:20:32.509Z,56.17
2022-07-28T01:21:34.465Z,56.09
2022-07-28T01:22:36.409Z,56.13
2022-07-28T01:23:38.359Z,56.12
2022-07-28T01:24:40.212Z,56.04
2022-07-28T01:25:48.314Z,56.00
2022-07-28T01:26:46.267Z,55.98
2022-07-28T01:27:48.222Z,56.05
2022-07-28T01:28:50.174Z,55.96
2022-07-28T01:29:52.124Z,55.88
2022-07-28T01:30:54.236Z,55.81
2022-07-28T01:31:56.235Z,55.80
2022-07-28T01:32:58.191Z,55.76
2022-07-28T01:34:00.148Z,55.71
2022-07-28T01:35:04.035Z,55.69
2022-07-28T01:36:06.196Z,55.65
2022-07-28T01:37:08.146Z,55.58
2022-07-28T01:38:10.099Z,55.53
2022-07-28T01:39:12.052Z,55.58
2022-07-28T01:40:14.723Z,55.63
2022-07-28T01:41:16.674Z,55.67
2022-07-28T01:42:18.939Z,55.76
2022-07-28T01:43:21.104Z,55.76
2022-07-28T01:44:23.019Z,55.76
2022-07-28T01:45:26.742Z,55.81
2022-07-28T01:46:28.853Z,55.85
2022-07-28T01:47:30.743Z,55.87
2022-07-28T01:48:32.710Z,55.84
2022-07-28T01:49:34.754Z,55.84
2022-07-28T01:50:36.813Z,55.92
2022-07-28T01:51:38.760Z,56.03
2022-07-28T01:52:40.709Z,56.11
2022-07-28T01:53:42.660Z,56.16
2022-07-28T01:54:44.614Z,56.18
2022-07-28T01:55:46.469Z,56.24
2022-07-28T01:56:48.728Z,56.27
2022-07-28T01:57:50.691Z,56.37
2022-07-28T01:58:52.636Z,56.39
2022-07-28T01:59:54.592Z,56.43
2022-07-28T02:00:56.760Z,56.44
2022-07-28T02:01:58.775Z,56.50
2022-07-28T02:03:00.763Z,56.53
2022-07-28T02:04:02.713Z,56.55
2022-07-28T02:05:05.245Z,56.65
2022-07-28T02:06:07.645Z,56.75
2022-07-28T02:07:09.798Z,56.65
2022-07-28T02:08:11.750Z,56.56
2022-07-28T02:09:13.632Z,56.69
2022-07-28T02:10:16.679Z,56.76
2022-07-28T02:11:18.642Z,56.80
2022-07-28T02:12:20.591Z,56.87
2022-07-28T02:13:22.537Z,56.84
2022-07-28T02:14:24.493Z,56.76
2022-07-28T02:15:26.442Z,56.70
2022-07-28T02:16:28.959Z,56.63
2022-07-28T02:17:30.967Z,56.49
2022-07-28T02:18:33.025Z,56.35
2022-07-28T02:19:34.966Z,56.28
2022-07-28T02:20:37.228Z,56.21
2022-07-28T02:21:39.185Z,56.16
2022-07-28T02:22:41.133Z,56.18
2022-07-28T02:23:43.089Z,56.14
2022-07-28T02:24:45.034Z,56.12
2022-07-28T02:25:47.095Z,56.16
2022-07-28T02:26:49.454Z,56.16
2022-07-28T02:27:51.409Z,56.19
2022-07-28T02:28:53.354Z,56.21
2022-07-28T02:29:55.313Z,56.19
2022-07-28T02:30:57.512Z,56.34
2022-07-28T02:31:59.528Z,56.35
2022-07-28T02:33:02.911Z,56.47
2022-07-28T02:34:04.812Z,56.42
2022-07-28T02:35:09.362Z,56.36
2022-07-28T02:36:14.245Z,56.67
2022-07-28T02:37:16.970Z,56.96
2022-07-28T02:38:18.924Z,56.99
2022-07-28T02:39:20.873Z,57.06
2022-07-28T02:40:24.670Z,57.05
2022-07-28T02:41:26.925Z,57.11
2022-07-28T02:42:28.980Z,57.18
2022-07-28T02:43:50.150Z,57.30
2022-07-28T02:44:34.732Z,57.35
2022-07-28T02:45:36.680Z,57.25
2022-07-28T02:46:39.230Z,57.31
2022-07-28T02:47:41.203Z,57.43
2022-07-28T02:48:43.219Z,57.47
2022-07-28T02:49:45.206Z,57.60
2022-07-28T02:50:47.367Z,57.68
2022-07-28T02:51:49.328Z,57.75
2022-07-28T02:52:51.372Z,57.75
2022-07-28T02:53:53.328Z,57.73
2022-07-28T02:54:55.279Z,57.71
2022-07-28T02:55:57.231Z,57.61
2022-07-28T02:56:59.694Z,57.57
2022-07-28T02:58:01.644Z,57.54
2022-07-28T02:59:05.451Z,57.43
2022-07-28T03:00:09.239Z,57.35
2022-07-28T03:01:11.532Z,57.21
2022-07-28T03:02:13.550Z,57.12
2022-07-28T03:03:15.507Z,57.06
2022-07-28T03:04:17.857Z,57.06
2022-07-28T03:05:20.061Z,57.06
2022-07-28T03:06:28.682Z,57.05
2022-07-28T03:07:27.720Z,57.01
2022-07-28T03:08:29.673Z,56.99
2022-07-28T03:09:31.623Z,56.95
2022-07-28T03:10:34.815Z,57.06
2022-07-28T03:11:37.062Z,57.05
2022-07-28T03:12:39.018Z,57.04
2022-07-28T03:13:40.978Z,57.07
2022-07-28T03:14:42.915Z,57.22
2022-07-28T03:15:44.876Z,57.39
2022-07-28T03:16:50.005Z,57.38
2022-07-28T03:17:50.831Z,57.38
2022-07-28T03:18:52.787Z,57.40
2022-07-28T03:19:54.735Z,57.52
2022-07-28T03:20:57.317Z,57.59
2022-07-28T03:21:59.354Z,57.61
2022-07-28T03:23:01.307Z,57.50
2022-07-28T03:24:03.258Z,57.25
2022-07-28T03:25:05.210Z,57.33
2022-07-28T03:26:09.134Z,57.19
2022-07-28T03:27:11.164Z,57.14
2022-07-28T03:28:13.116Z,57.23
2022-07-28T03:29:15.068Z,57.27
2022-07-28T03:30:17.736Z,57.22
2022-07-28T03:31:19.718Z,57.06
2022-07-28T03:32:21.744Z,56.97
2022-07-28T03:33:23.705Z,56.99
2022-07-28T03:34:25.651Z,56.99
2022-07-28T03:35:27.598Z,56.97
2022-07-28T03:36:29.765Z,56.95
2022-07-28T03:37:31.706Z,56.97
2022-07-28T03:38:33.662Z,56.97
2022-07-28T03:39:35.616Z,56.96
2022-07-28T03:40:37.777Z,56.99
2022-07-28T03:41:39.931Z,56.98
2022-07-28T03:42:41.886Z,56.96
2022-07-28T03:43:43.946Z,57.01
2022-07-28T03:44:45.893Z,57.05
2022-07-28T03:45:47.978Z,57.08
2022-07-28T03:46:50.411Z,57.09
2022-07-28T03:47:52.363Z,57.09
2022-07-28T03:48:54.353Z,57.13
2022-07-28T03:49:56.371Z,57.23
2022-07-28T03:50:58.632Z,57.07
2022-07-28T03:52:00.686Z,57.13
2022-07-28T03:53:02.639Z,57.33
2022-07-28T03:54:04.563Z,57.20
2022-07-28T03:55:06.539Z,56.99
2022-07-28T03:56:09.314Z,56.84
2022-07-28T03:57:11.266Z,57.21
2022-07-28T03:58:13.222Z,57.16
2022-07-28T03:59:15.172Z,57.13
2022-07-28T04:00:18.154Z,57.15
2022-07-28T04:01:20.145Z,57.01
2022-07-28T04:02:22.181Z,56.94
2022-07-28T04:03:42.453Z,56.87
2022-07-28T04:04:31.079Z,56.89
2022-07-28T04:05:33.033Z,56.93
2022-07-28T04:06:35.187Z,56.88
2022-07-28T04:07:37.141Z,56.88
2022-07-28T04:08:39.093Z,56.69
2022-07-28T04:09:41.046Z,56.93
2022-07-28T04:10:43.201Z,56.87
2022-07-28T04:11:45.153Z,56.84
2022-07-28T04:12:47.096Z,56.42
2022-07-28T04:13:49.049Z,56.04
2022-07-28T04:14:51.002Z,55.98
2022-07-28T04:15:52.951Z,55.94
2022-07-28T04:16:55.146Z,55.79
2022-07-28T04:17:57.164Z,55.87
2022-07-28T04:18:59.122Z,56.01
2022-07-28T04:20:01.077Z,55.96
2022-07-28T04:21:03.025Z,55.94
2022-07-28T04:22:04.975Z,55.70
2022-07-28T04:23:06.927Z,55.43
2022-07-28T04:24:08.910Z,55.41
2022-07-28T04:25:10.829Z,55.56
2022-07-28T04:26:13.088Z,55.80
2022-07-28T04:27:14.944Z,55.87
2022-07-28T04:28:16.897Z,55.97
2022-07-28T04:29:27.131Z,55.84
2022-07-28T04:30:24.435Z,55.72
2022-07-28T04:31:26.493Z,55.81
2022-07-28T04:32:28.597Z,55.82
2022-07-28T04:33:30.571Z,55.55
2022-07-28T04:34:32.497Z,55.36
2022-07-28T04:35:34.451Z,55.13
2022-07-28T04:36:36.607Z,55.07
2022-07-28T04:37:38.566Z,55.04
2022-07-28T04:38:40.521Z,55.38
2022-07-28T04:39:42.472Z,55.50
2022-07-28T04:40:44.543Z,55.48
2022-07-28T04:41:46.883Z,55.62
2022-07-28T04:42:48.837Z,55.51
2022-07-28T04:43:50.793Z,55.56
2022-07-28T04:44:52.748Z,55.71
2022-07-28T04:45:54.885Z,55.69
2022-07-28T04:46:57.157Z,55.52
2022-07-28T04:47:59.007Z,56.04
2022-07-28T04:49:01.018Z,56.05
2022-07-28T04:50:03.323Z,56.02
2022-07-28T04:51:05.273Z,56.22
2022-07-28T04:52:07.233Z,55.82
2022-07-28T04:53:09.176Z,55.92
2022-07-28T04:54:11.434Z,56.41
2022-07-28T04:55:13.703Z,56.05
2022-07-28T04:56:16.269Z,56.43
2022-07-28T04:57:18.117Z,56.17
2022-07-28T04:58:21.169Z,55.33
2022-07-28T04:59:24.687Z,54.78
2022-07-28T05:00:27.556Z,54.85
2022-07-28T05:01:30.328Z,54.66
2022-07-28T05:02:32.493Z,55.12
2022-07-28T05:03:36.479Z,54.66
2022-07-28T05:04:38.371Z,54.50
2022-07-28T05:05:40.389Z,54.66
2022-07-28T05:06:42.750Z,55.10
2022-07-28T05:07:44.819Z,55.48
2022-07-28T05:08:46.763Z,55.41
2022-07-28T05:09:48.715Z,55.29
2022-07-28T05:10:50.870Z,55.10
2022-07-28T05:11:52.821Z,55.64
2022-07-28T05:12:54.772Z,55.95
2022-07-28T05:13:56.623Z,55.95
2022-07-28T05:14:58.580Z,55.82
2022-07-28T05:16:00.529Z,55.70
2022-07-28T05:17:02.499Z,55.28
2022-07-28T05:18:04.405Z,55.21
2022-07-28T05:19:06.289Z,55.04
2022-07-28T05:20:08.859Z,55.25
2022-07-28T05:21:11.008Z,55.05
2022-07-28T05:22:12.895Z,54.56
2022-07-28T05:23:15.737Z,54.20
2022-07-28T05:24:17.818Z,53.52
2022-07-28T05:25:19.958Z,53.46
2022-07-28T05:26:22.819Z,53.33
2022-07-28T05:27:24.770Z,53.59
2022-07-28T05:28:26.620Z,53.61
2022-07-28T05:29:35.140Z,53.09
2022-07-28T05:30:32.472Z,52.95
2022-07-28T05:31:34.443Z,52.82
2022-07-28T05:32:36.480Z,53.49
2022-07-28T05:33:38.432Z,53.20
2022-07-28T05:34:40.390Z,53.15
2022-07-28T05:35:42.345Z,52.90
2022-07-28T05:36:44.599Z,53.05
2022-07-28T05:37:46.547Z,52.99
2022-07-28T05:38:48.499Z,53.27
2022-07-28T05:39:50.467Z,53.51
2022-07-28T05:40:52.713Z,53.48
2022-07-28T05:41:54.664Z,53.47
2022-07-28T05:42:56.617Z,53.08
2022-07-28T05:43:58.986Z,53.24
2022-07-28T05:45:00.835Z,53.62
2022-07-28T05:46:03.264Z,53.27
2022-07-28T05:47:05.462Z,53.20
2022-07-28T05:48:07.403Z,53.53
2022-07-28T05:49:09.499Z,53.66
2022-07-28T05:50:12.207Z,53.34
2022-07-28T05:51:14.184Z,53.12
2022-07-28T05:52:16.135Z,53.45
2022-07-28T05:53:18.088Z,53.37
2022-07-28T05:54:19.962Z,53.28
2022-07-28T05:55:21.895Z,53.31
2022-07-28T05:56:25.685Z,53.24
2022-07-28T05:57:27.638Z,53.01
2022-07-28T05:58:29.594Z,53.07
2022-07-28T05:59:31.564Z,53.05
2022-07-28T06:00:34.012Z,52.95
2022-07-28T06:01:35.928Z,52.94
2022-07-28T06:02:37.945Z,52.90
2022-07-28T06:03:42.296Z,53.06
2022-07-28T06:04:43.779Z,53.15
2022-07-28T06:06:13.863Z,52.74
2022-07-28T06:06:49.533Z,53.08
2022-07-28T06:07:51.476Z,53.00
2022-07-28T06:08:53.425Z,53.04
2022-07-28T06:09:55.478Z,53.07
2022-07-28T06:10:57.647Z,53.20
2022-07-28T06:11:59.684Z,53.49
2022-07-28T06:13:01.636Z,53.19
2022-07-28T06:14:03.590Z,53.09
2022-07-28T06:15:05.445Z,53.28
2022-07-28T06:16:12.777Z,53.58
2022-07-28T06:17:11.801Z,53.01
2022-07-28T06:18:13.753Z,53.03
2022-07-28T06:19:15.723Z,53.21
2022-07-28T06:20:18.687Z,53.31
2022-07-28T06:21:21.257Z,53.41
2022-07-28T06:22:23.204Z,53.52
2022-07-28T06:23:25.162Z,53.02
2022-07-28T06:24:27.108Z,52.84
2022-07-28T06:25:29.071Z,52.59
2022-07-28T06:26:32.662Z,52.64
2022-07-28T06:27:34.719Z,52.79
2022-07-28T06:28:36.668Z,52.98
2022-07-28T06:29:38.626Z,53.00
2022-07-28T06:30:41.801Z,52.83
2022-07-28T06:31:43.821Z,52.48
2022-07-28T06:32:45.809Z,52.04
2022-07-28T06:33:47.867Z,51.80
2022-07-28T06:34:49.815Z,51.56
2022-07-28T06:35:51.771Z,51.78
2022-07-28T06:36:53.929Z,52.14
2022-07-28T06:37:55.884Z,52.02
2022-07-28T06:38:58.547Z,51.99
2022-07-28T06:40:00.511Z,52.05
2022-07-28T06:41:02.454Z,51.46
2022-07-28T06:42:04.408Z,51.32
2022-07-28T06:43:06.688Z,51.35
2022-07-28T06:44:08.632Z,51.63
2022-07-28T06:45:19.696Z,51.40
2022-07-28T06:46:15.289Z,51.15
2022-07-28T06:47:17.305Z,51.11
2022-07-28T06:48:19.298Z,50.87
2022-07-28T06:49:21.272Z,50.63
2022-07-28T06:50:26.017Z,50.49
2022-07-28T06:51:27.328Z,50.82
2022-07-28T06:52:29.254Z,50.95
2022-07-28T06:53:33.672Z,50.76
2022-07-28T06:54:35.004Z,50.86
2022-07-28T06:55:36.954Z,51.15
2022-07-28T06:56:39.523Z,51.09
2022-07-28T06:57:41.569Z,50.84
2022-07-28T06:58:47.040Z,50.61
2022-07-28T06:59:47.216Z,50.37
2022-07-28T07:00:49.430Z,50.14
2022-07-28T07:01:51.548Z,50.14
2022-07-28T07:02:53.416Z,50.06
2022-07-28T07:03:55.363Z,50.12
2022-07-28T07:04:57.394Z,49.98
2022-07-28T07:05:59.343Z,49.79
2022-07-28T07:07:01.504Z,49.59
2022-07-28T07:08:04.754Z,49.43
2022-07-28T07:09:07.076Z,49.70
2022-07-28T07:10:10.841Z,49.44
2022-07-28T07:11:12.787Z,49.37
2022-07-28T07:12:14.750Z,48.99
2022-07-28T07:13:16.694Z,48.63
2022-07-28T07:14:19.161Z,48.25
2022-07-28T07:15:21.321Z,48.30
2022-07-28T07:16:23.744Z,47.35
2022-07-28T07:17:25.734Z,47.35
2022-07-28T07:18:30.463Z,46.99
2022-07-28T07:19:32.408Z,46.56
2022-07-28T07:20:35.991Z,46.54
2022-07-28T07:21:38.875Z,46.28
2022-07-28T07:22:40.823Z,46.49
2022-07-28T07:23:42.974Z,46.08
2022-07-28T07:24:44.930Z,46.07
2022-07-28T07:25:47.520Z,46.14
2022-07-28T07:26:49.657Z,46.22
2022-07-28T07:27:51.611Z,46.37
2022-07-28T07:28:53.565Z,46.55
2022-07-28T07:29:55.508Z,46.30
2022-07-28T07:30:57.939Z,45.80
2022-07-28T07:31:59.968Z,45.39
2022-07-28T07:33:01.986Z,44.73
2022-07-28T07:34:05.683Z,44.84
2022-07-28T07:35:07.635Z,45.29
2022-07-28T07:36:09.991Z,45.88
2022-07-28T07:37:11.905Z,46.35
2022-07-28T07:38:13.802Z,45.96
2022-07-28T07:39:15.752Z,46.06
2022-07-28T07:40:18.824Z,45.72
2022-07-28T07:41:21.000Z,45.77
2022-07-28T07:42:24.615Z,45.83
2022-07-28T07:43:26.835Z,45.87
2022-07-28T07:44:28.793Z,45.69
2022-07-28T07:45:30.838Z,45.48
2022-07-28T07:46:33.200Z,45.11
2022-07-28T07:47:35.261Z,45.33
2022-07-28T07:48:37.321Z,45.39
2022-07-28T07:49:43.476Z,45.27
2022-07-28T07:50:43.055Z,44.91
2022-07-28T07:51:45.012Z,45.08
2022-07-28T07:52:46.965Z,45.02
2022-07-28T07:53:48.929Z,44.56
2022-07-28T07:54:50.868Z,44.62
2022-07-28T07:55:52.820Z,44.84
2022-07-28T07:56:54.981Z,44.65
2022-07-28T07:57:56.932Z,44.57
2022-07-28T07:58:58.880Z,44.52
2022-07-28T08:00:00.841Z,44.52
2022-07-28T08:01:02.787Z,44.39
2022-07-28T08:02:04.795Z,44.32
2022-07-28T08:03:11.144Z,44.32
2022-07-28T08:04:10.566Z,44.40
2022-07-28T08:05:12.658Z,44.01
2022-07-28T08:06:16.957Z,44.35
2022-07-28T08:07:22.085Z,44.22
2022-07-28T08:08:24.433Z,44.09
2022-07-28T08:09:26.404Z,43.94
2022-07-28T08:10:30.085Z,43.73
2022-07-28T08:11:32.047Z,43.84
2022-07-28T08:12:33.994Z,43.60
2022-07-28T08:13:35.952Z,43.21
2022-07-28T08:14:37.900Z,42.92
2022-07-28T08:15:39.897Z,42.92
2022-07-28T08:16:42.063Z,43.71
2022-07-28T08:17:44.064Z,43.25
2022-07-28T08:18:46.017Z,42.64
2022-07-28T08:19:47.967Z,42.78
2022-07-28T08:20:50.233Z,43.13
2022-07-28T08:21:52.244Z,43.29
2022-07-28T08:22:54.852Z,43.40
2022-07-28T08:23:57.720Z,43.40
2022-07-28T08:24:59.678Z,43.32
2022-07-28T08:26:01.634Z,43.42
2022-07-28T08:27:03.587Z,43.09
2022-07-28T08:28:05.555Z,42.83
2022-07-28T08:29:07.616Z,43.05
2022-07-28T08:30:10.153Z,43.17
2022-07-28T08:31:12.129Z,43.35
2022-07-28T08:32:14.368Z,43.53
2022-07-28T08:33:16.323Z,43.34
2022-07-28T08:34:26.211Z,43.52
2022-07-28T08:35:33.006Z,43.52
2022-07-28T08:36:26.378Z,43.36
2022-07-28T08:37:28.330Z,42.99
2022-07-28T08:38:30.269Z,43.30
2022-07-28T08:39:32.226Z,43.26
2022-07-28T08:40:34.278Z,43.11
2022-07-28T08:41:36.128Z,43.06
2022-07-28T08:42:37.981Z,43.45
2022-07-28T08:43:39.931Z,43.26
2022-07-28T08:44:41.881Z,43.23
2022-07-28T08:45:43.631Z,43.03
2022-07-28T08:46:45.730Z,42.74
2022-07-28T08:48:10.165Z,42.66
2022-07-28T08:48:51.675Z,42.63
2022-07-28T08:49:53.695Z,42.84
2022-07-28T08:50:55.851Z,42.85
2022-07-28T08:51:57.709Z,42.49
2022-07-28T08:53:00.985Z,42.44
2022-07-28T08:54:02.934Z,42.28
2022-07-28T08:55:05.504Z,42.33
2022-07-28T08:56:07.972Z,42.73
2022-07-28T08:57:09.917Z,42.86
2022-07-28T08:58:11.770Z,42.68
2022-07-28T08:59:13.725Z,42.68
2022-07-28T09:00:17.523Z,43.10
2022-07-28T09:01:19.399Z,42.99
2022-07-28T09:02:21.513Z,41.94
2022-07-28T09:03:23.678Z,42.20
2022-07-28T09:04:25.634Z,41.82
2022-07-28T09:05:27.494Z,41.72
2022-07-28T09:06:30.470Z,41.47
2022-07-28T09:07:32.420Z,41.61
2022-07-28T09:08:34.374Z,41.60
2022-07-28T09:09:36.217Z,41.81
2022-07-28T09:10:39.294Z,40.52
2022-07-28T09:11:41.040Z,39.02
2022-07-28T09:12:42.790Z,38.57
2022-07-28T09:13:44.539Z,38.15
2022-07-28T09:14:46.490Z,38.81
2022-07-28T09:15:48.580Z,38.81
2022-07-28T09:16:50.712Z,39.23
2022-07-28T09:17:52.538Z,39.43
2022-07-28T09:18:54.502Z,39.04
2022-07-28T09:19:56.358Z,38.51
2022-07-28T09:20:58.632Z,38.06
2022-07-28T09:22:00.684Z,38.33
2022-07-28T09:23:03.033Z,38.56
2022-07-28T09:24:05.077Z,38.75
2022-07-28T09:25:06.939Z,38.92
2022-07-28T09:26:11.409Z,38.97
2022-07-28T09:27:12.897Z,39.19
2022-07-28T09:28:14.948Z,38.78
2022-07-28T09:29:16.895Z,37.86
2022-07-28T09:30:20.596Z,37.86
2022-07-28T09:31:22.599Z,37.68
2022-07-28T09:32:24.601Z,37.67
2022-07-28T09:33:41.375Z,37.38
2022-07-28T09:34:30.958Z,38.18
2022-07-28T09:35:32.808Z,38.06
2022-07-28T09:36:34.821Z,38.60
2022-07-28T09:37:36.723Z,38.02
2022-07-28T09:38:38.573Z,37.75
2022-07-28T09:39:40.519Z,38.32
2022-07-28T09:40:42.718Z,38.12
2022-07-28T09:41:46.472Z,38.17
2022-07-28T09:42:48.421Z,38.40
2022-07-28T09:43:54.897Z,38.19
2022-07-28T09:45:20.282Z,37.72
2022-07-28T09:45:57.710Z,37.61
2022-07-28T09:47:00.110Z,37.34
2022-07-28T09:49:28.542Z,37.89
2022-07-28T09:50:27.894Z,38.18
2022-07-28T09:51:29.755Z,38.40
2022-07-28T09:52:31.703Z,38.58
2022-07-28T09:53:33.554Z,37.98
2022-07-28T09:54:40.570Z,37.40
2022-07-28T09:55:39.068Z,36.74
2022-07-28T09:56:41.713Z,36.42
2022-07-28T09:57:45.949Z,36.51
2022-07-28T09:58:47.365Z,36.80
2022-07-28T09:59:53.599Z,36.77
2022-07-28T10:00:53.257Z,36.85
2022-07-28T10:01:55.371Z,36.84
2022-07-28T10:02:58.645Z,36.72
2022-07-28T10:04:02.777Z,36.38
2022-07-28T10:05:04.245Z,36.33
2022-07-28T10:06:06.398Z,37.14
2022-07-28T10:07:08.149Z,37.44
2022-07-28T10:08:10.103Z,37.95
2022-07-28T10:09:12.060Z,38.33
2022-07-28T10:10:14.735Z,38.03
2022-07-28T10:11:16.576Z,37.70
2022-07-28T10:12:18.531Z,36.79
2022-07-28T10:13:20.474Z,35.95
2022-07-28T10:14:22.326Z,36.06
2022-07-28T10:15:30.900Z,36.03
2022-07-28T10:16:31.638Z,36.31
2022-07-28T10:17:33.611Z,36.77
2022-07-28T10:18:35.563Z,36.54
2022-07-28T10:19:37.513Z,36.66
2022-07-28T10:20:39.569Z,37.10
2022-07-28T10:21:42.031Z,37.09
2022-07-28T10:22:43.786Z,36.95
2022-07-28T10:23:46.048Z,37.01
2022-07-28T10:24:47.994Z,37.20
2022-07-28T10:25:50.049Z,37.17
2022-07-28T10:26:52.208Z,36.17
2022-07-28T10:27:54.160Z,36.33
2022-07-28T10:28:56.323Z,36.17
2022-07-28T10:29:58.276Z,36.32
2022-07-28T10:31:00.353Z,36.65
2022-07-28T10:32:02.278Z,35.66
2022-07-28T10:33:04.136Z,35.72
2022-07-28T10:34:06.080Z,36.73
2022-07-28T10:35:07.953Z,37.55
2022-07-28T10:36:10.169Z,37.66
2022-07-28T10:37:12.143Z,37.60
2022-07-28T10:38:14.130Z,37.36
2022-07-28T10:39:16.154Z,37.24
2022-07-28T10:40:18.616Z,37.24
2022-07-28T10:41:20.664Z,37.54
2022-07-28T10:42:22.607Z,37.39
2022-07-28T10:43:24.773Z,36.89
2022-07-28T10:44:28.160Z,36.56
2022-07-28T10:45:55.239Z,35.32
2022-07-28T10:46:34.065Z,34.58
2022-07-28T10:47:36.639Z,34.71
2022-07-28T10:48:38.848Z,35.11
2022-07-28T10:49:40.954Z,35.11
2022-07-28T10:50:44.620Z,35.87
2022-07-28T10:52:02.618Z,36.04
2022-07-28T10:52:53.619Z,35.86
2022-07-28T10:53:54.569Z,35.81
2022-07-28T10:54:56.811Z,35.80
2022-07-28T10:55:58.772Z,35.21
2022-07-28T10:57:04.805Z,35.45
2022-07-28T10:58:11.410Z,35.11
2022-07-28T10:59:08.720Z,34.60
2022-07-28T11:00:13.527Z,35.24
2022-07-28T11:01:32.375Z,35.41
2022-07-28T11:02:18.641Z,35.95
2022-07-28T11:03:22.517Z,35.74
2022-07-28T11:04:29.398Z,35.16
2022-07-28T11:05:28.421Z,34.63
2022-07-28T11:06:31.295Z,35.11
2022-07-28T11:07:33.253Z,35.16
2022-07-28T11:08:35.422Z,34.64
2022-07-28T11:09:37.359Z,34.40
2022-07-28T11:10:39.517Z,34.38
2022-07-28T11:11:41.477Z,34.81
2022-07-28T11:12:43.834Z,35.91
2022-07-28T11:13:45.783Z,35.59
2022-07-28T11:14:51.534Z,34.88
2022-07-28T11:15:54.138Z,34.83
2022-07-28T11:16:56.518Z,34.50
2022-07-28T11:17:59.335Z,34.72
2022-07-28T11:19:01.599Z,35.05
2022-07-28T11:21:09.577Z,34.66
2022-07-28T11:22:12.871Z,34.63
2022-07-28T11:23:16.875Z,35.18
2022-07-28T11:24:18.931Z,34.20
2022-07-28T11:25:22.680Z,33.85
2022-07-28T11:26:25.701Z,33.46
2022-07-28T11:27:27.662Z,33.30
2022-07-28T11:28:29.607Z,33.65
2022-07-28T11:29:31.561Z,33.58
2022-07-28T11:30:33.830Z,33.83
2022-07-28T11:31:35.797Z,33.71
2022-07-28T11:32:44.045Z,33.71
2022-07-28T11:33:46.887Z,33.26
2022-07-28T11:34:45.520Z,32.74
2022-07-28T11:35:47.475Z,32.59
2022-07-28T11:36:49.631Z,32.50
2022-07-28T11:37:51.580Z,32.89
2022-07-28T11:38:53.533Z,32.71
2022-07-28T11:39:55.486Z,32.55
2022-07-28T11:40:57.654Z,32.83
2022-07-28T11:41:59.611Z,32.25
2022-07-28T11:43:02.162Z,32.36
2022-07-28T11:44:05.394Z,32.36
2022-07-28T11:45:09.143Z,32.71
2022-07-28T11:46:13.987Z,32.47
2022-07-28T11:47:17.868Z,32.29
2022-07-28T11:48:19.815Z,32.58
2022-07-28T11:49:21.810Z,33.10
2022-07-28T11:50:24.131Z,32.59
2022-07-28T11:51:26.074Z,32.46
2022-07-28T11:52:29.164Z,32.27
2022-07-28T11:53:31.110Z,32.31
2022-07-28T11:54:33.061Z,32.01
2022-07-28T11:55:49.415Z,32.41
2022-07-28T11:56:39.121Z,32.05
2022-07-28T11:57:41.273Z,31.62
2022-07-28T11:58:43.231Z,31.74
2022-07-28T11:59:47.297Z,31.75
2022-07-28T12:00:49.105Z,32.16
2022-07-28T12:01:51.253Z,32.36
2022-07-28T12:02:54.044Z,32.54
2022-07-28T12:03:56.838Z,32.53
2022-07-28T12:04:59.940Z,32.82
2022-07-28T12:06:02.126Z,31.87
2022-07-28T12:07:04.069Z,30.88
2022-07-28T12:08:07.249Z,30.24
2022-07-28T12:09:09.202Z,30.07
2022-07-28T12:10:17.914Z,30.65
2022-07-28T12:11:16.831Z,30.59
2022-07-28T12:12:18.852Z,30.23
2022-07-28T12:13:20.801Z,31.10
2022-07-28T12:14:22.759Z,30.54
2022-07-28T12:15:24.714Z,31.54
2022-07-28T12:16:27.310Z,31.43
2022-07-28T12:17:30.148Z,31.95
2022-07-28T12:18:32.917Z,32.16
2022-07-28T12:19:36.711Z,31.43
2022-07-28T12:20:40.120Z,31.05
2022-07-28T12:21:46.113Z,30.95
2022-07-28T12:22:45.850Z,31.27
2022-07-28T12:23:49.435Z,31.42
2022-07-28T12:24:51.804Z,31.55
2022-07-28T12:25:54.488Z,31.47
2022-07-28T12:26:56.561Z,31.63
2022-07-28T12:27:58.580Z,31.68
2022-07-28T12:29:02.372Z,31.92
2022-07-28T12:30:06.388Z,31.62
2022-07-28T12:31:09.129Z,31.84
2022-07-28T12:32:11.432Z,31.72
2022-07-28T12:33:13.456Z,31.30
2022-07-28T12:34:16.166Z,31.88
2022-07-28T12:35:18.543Z,32.43
2022-07-28T12:36:21.059Z,31.62
2022-07-28T12:37:23.031Z,31.06
2022-07-28T12:38:24.971Z,30.97
2022-07-28T12:39:27.029Z,30.27
2022-07-28T12:40:30.812Z,29.79
2022-07-28T12:41:32.974Z,29.56
2022-07-28T12:42:34.927Z,29.62
2022-07-28T12:43:36.883Z,29.65
2022-07-28T12:44:38.785Z,29.33
2022-07-28T12:45:40.833Z,29.35
2022-07-28T12:46:43.359Z,29.82
2022-07-28T12:47:45.301Z,30.11
2022-07-28T12:48:47.299Z,31.12
2022-07-28T12:49:49.413Z,29.63
2022-07-28T12:50:51.584Z,30.32
2022-07-28T12:51:53.531Z,30.44
2022-07-28T12:52:55.480Z,30.47
2022-07-28T12:53:57.429Z,31.00
2022-07-28T12:54:59.382Z,31.07
2022-07-28T12:56:01.343Z,31.14
2022-07-28T12:57:03.284Z,31.45
2022-07-28T12:58:05.234Z,31.73
2022-07-28T12:59:07.192Z,31.73
2022-07-28T13:00:10.091Z,31.99
2022-07-28T13:01:12.435Z,31.38
2022-07-28T13:02:14.456Z,31.14
2022-07-28T13:03:16.343Z,31.21
2022-07-28T13:04:18.702Z,31.43
2022-07-28T13:05:20.840Z,31.06
2022-07-28T13:06:24.530Z,31.06
2022-07-28T13:07:28.086Z,31.22
2022-07-28T13:08:31.832Z,31.44
2022-07-28T13:09:35.377Z,30.57
2022-07-28T13:10:37.667Z,30.48
2022-07-28T13:11:47.065Z,30.77
2022-07-28T13:12:43.826Z,30.50
2022-07-28T13:13:45.978Z,30.42
2022-07-28T13:14:47.932Z,30.45
2022-07-28T13:15:53.595Z,30.34
2022-07-28T13:16:56.030Z,30.40
2022-07-28T13:17:57.883Z,31.17
2022-07-28T13:18:59.840Z,31.16
2022-07-28T13:20:02.057Z,31.18
2022-07-28T13:21:04.048Z,31.38
2022-07-28T13:22:09.148Z,31.56
2022-07-28T13:23:09.574Z,31.18
2022-07-28T13:24:11.780Z,30.86
2022-07-28T13:25:13.810Z,31.05